Time;durP1;ratioP1;P1;durP2;ratioP2;P2;SDS_P1;SDS_P2;PMS_P1;PMS_P2;Temp;Humidity;BMP_temperature;BMP_pressure;BME280_temperature;BME280_humidity;BME280_pressure;Samples;Min_cycle;Max_cycle;Signal;HPM_P1;HPM_P2
2022/02/12 00:01:33;;;;;;;20.50;6.53;;;-0.10;99.90;;;;;;4991244;28;20026;-78
2022/02/12 00:03:59;;;;;;;12.10;5.95;;;-0.30;99.90;;;;;;5008602;28;20125;-78
2022/02/12 00:06:24;;;;;;;14.27;5.72;;;0.40;99.90;;;;;;5008790;28;20551;-78
2022/02/12 00:08:50;;;;;;;17.73;6.45;;;0.80;99.90;;;;;;5007891;28;20037;-78
2022/02/12 00:11:17;;;;;;;18.63;5.85;;;-0.50;99.90;;;;;;5008269;28;20079;-78
2022/02/12 00:13:42;;;;;;;18.38;6.25;;;-0.60;99.90;;;;;;4990819;28;20030;-78
2022/02/12 00:16:08;;;;;;;13.20;5.32;;;0.80;99.90;;;;;;5008594;28;20041;-78
2022/02/12 00:18:34;;;;;;;13.07;5.65;;;-0.80;99.90;;;;;;5007439;28;20482;-78
2022/02/12 00:20:59;;;;;;;16.77;6.47;;;-0.70;99.90;;;;;;5008504;28;20030;-78
2022/02/12 00:23:25;;;;;;;13.88;5.68;;;-0.60;99.90;;;;;;5008385;28;20505;-78
2022/02/12 00:25:51;;;;;;;16.63;5.65;;;-0.70;99.90;;;;;;5008654;28;20022;-78
2022/02/12 00:28:17;;;;;;;12.07;4.88;;;-0.70;99.90;;;;;;5008293;28;20029;-78
2022/02/12 00:30:43;;;;;;;16.55;5.68;;;-0.80;99.90;;;;;;5008005;28;20026;-78
2022/02/12 00:33:09;;;;;;;14.40;5.20;;;-0.90;99.90;;;;;;5008313;28;20037;-78
2022/02/12 00:35:34;;;;;;;13.00;5.45;;;-0.70;99.90;;;;;;5008554;28;20034;-78
2022/02/12 00:38:00;;;;;;;13.20;5.30;;;-1.00;99.90;;;;;;5008420;28;20513;-78
2022/02/12 00:40:27;;;;;;;15.85;5.40;;;-1.30;99.90;;;;;;4990346;28;20014;-78
2022/02/12 00:42:53;;;;;;;13.25;5.32;;;-1.10;99.90;;;;;;5008157;28;20025;-78
2022/02/12 00:45:18;;;;;;;16.70;6.05;;;-1.20;99.90;;;;;;5011108;28;20026;-78
2022/02/12 00:47:44;;;;;;;12.02;4.75;;;-1.10;99.90;;;;;;5011702;28;20064;-78
2022/02/12 00:50:10;;;;;;;14.95;5.25;;;-1.20;99.90;;;;;;5011051;28;20034;-78
2022/02/12 00:52:36;;;;;;;10.07;4.85;;;-1.20;99.90;;;;;;5011824;28;20517;-78
2022/02/12 00:55:02;;;;;;;15.05;5.47;;;-1.10;99.90;;;;;;5011904;28;20474;-78
2022/02/12 00:57:27;;;;;;;12.63;5.45;;;-1.10;99.90;;;;;;5011775;28;20078;-78
2022/02/12 00:59:53;;;;;;;20.48;5.47;;;-1.30;99.90;;;;;;5011189;28;20554;-78
2022/02/12 01:02:19;;;;;;;15.50;5.20;;;-1.00;99.90;;;;;;5011605;28;20034;-78
2022/02/12 01:04:44;;;;;;;14.27;4.80;;;-1.30;99.90;;;;;;5011251;28;20028;-78
2022/02/12 01:07:10;;;;;;;13.60;4.53;;;-1.30;99.90;;;;;;5011570;28;20486;-78
2022/02/12 01:09:37;;;;;;;13.90;5.35;;;-1.40;99.90;;;;;;5010606;28;20037;-77
2022/02/12 01:12:04;;;;;;;12.75;5.15;;;-1.60;99.90;;;;;;4993974;28;20030;-78
2022/02/12 01:14:29;;;;;;;16.83;5.88;;;-1.70;99.90;;;;;;5011360;28;20030;-78
2022/02/12 01:16:55;;;;;;;14.35;5.93;;;-1.70;99.90;;;;;;4993663;28;20536;-78
2022/02/12 01:19:21;;;;;;;17.88;5.97;;;-1.60;99.90;;;;;;5009589;28;20485;-77
2022/02/12 01:21:47;;;;;;;15.48;6.25;;;-1.60;99.90;;;;;;5010656;28;20069;-79
2022/02/12 01:24:12;;;;;;;17.58;6.07;;;-1.50;99.90;;;;;;5011139;28;20026;-78
2022/02/12 01:26:38;;;;;;;19.23;7.32;;;-1.60;99.90;;;;;;5011152;28;20050;-78
2022/02/12 01:29:04;;;;;;;21.75;7.43;;;-1.70;99.90;;;;;;5009989;28;20063;-78
2022/02/12 01:31:30;;;;;;;15.35;6.97;;;-1.60;99.90;;;;;;5010711;28;20042;-78
2022/02/12 01:33:55;;;;;;;15.70;6.95;;;-1.70;99.90;;;;;;5011410;28;20079;-78
2022/02/12 01:36:21;;;;;;;17.33;7.32;;;-1.70;99.90;;;;;;5010845;28;20045;-78
2022/02/12 01:38:46;;;;;;;16.70;7.20;;;-1.70;99.90;;;;;;5010153;28;20065;-78
2022/02/12 01:41:12;;;;;;;18.15;7.95;;;-1.60;99.90;;;;;;5010613;28;20075;-78
2022/02/12 01:43:38;;;;;;;21.35;7.35;;;-1.50;99.90;;;;;;5010979;28;20051;-78
2022/02/12 01:46:03;;;;;;;17.27;7.07;;;-1.60;99.90;;;;;;5010959;28;20041;-78
2022/02/12 01:48:29;;;;;;;12.55;6.65;;;-1.60;99.90;;;;;;5010195;28;20037;-79
2022/02/12 01:50:55;;;;;;;21.30;7.13;;;-1.60;99.90;;;;;;5010526;28;20045;-79
2022/02/12 01:53:22;;;;;;;14.93;7.57;;;-1.70;99.90;;;;;;5011007;28;20026;-79
2022/02/12 01:55:48;;;;;;;14.98;6.72;;;-1.80;99.90;;;;;;5010847;28;20079;-78
2022/02/12 01:58:15;;;;;;;12.93;6.05;;;-1.90;99.90;;;;;;5010510;28;20109;-79
2022/02/12 02:00:42;;;;;;;16.17;6.70;;;-2.00;99.90;;;;;;5009857;28;20037;-78
2022/02/12 02:03:07;;;;;;;15.80;6.38;;;-1.90;99.90;;;;;;5010410;28;20033;-78
2022/02/12 02:05:34;;;;;;;18.50;6.30;;;-1.90;99.90;;;;;;5010428;28;20109;-79
2022/02/12 02:08:00;;;;;;;16.80;6.75;;;-2.00;99.90;;;;;;5010363;28;20038;-78
2022/02/12 02:10:26;;;;;;;15.60;6.65;;;-2.00;99.90;;;;;;5009721;28;20032;-78
2022/02/12 02:12:52;;;;;;;15.88;7.30;;;-2.00;99.90;;;;;;5010406;28;20079;-78
2022/02/12 02:15:18;;;;;;;22.20;7.93;;;-1.80;99.90;;;;;;5010600;28;20034;-78
2022/02/12 02:17:43;;;;;;;18.25;7.63;;;-1.70;99.90;;;;;;5010314;28;20039;-78
2022/02/12 02:20:10;;;;;;;21.40;8.15;;;-1.60;99.90;;;;;;5009182;28;20398;-78
2022/02/12 02:22:53;;;;;;;23.48;8.43;;;-1.50;99.90;;;;;;4992491;28;20045;-78
2022/02/12 02:25:19;;;;;;;16.60;7.72;;;-1.60;99.90;;;;;;4992646;28;20060;-78
2022/02/12 02:27:44;;;;;;;21.45;8.50;;;-1.50;99.90;;;;;;5009975;28;20097;-78
2022/02/12 02:30:15;;;;;;;23.92;8.45;;;-2.00;99.90;;;;;;5009323;28;20517;-78
2022/02/12 02:32:42;;;;;;;18.23;8.43;;;-1.80;99.90;;;;;;5009927;28;20436;-78
2022/02/12 02:35:09;;;;;;;19.17;9.57;;;-1.70;99.90;;;;;;5009848;28;20111;-77
2022/02/12 02:37:34;;;;;;;26.08;11.18;;;-1.50;99.90;;;;;;5009831;28;20030;-78
2022/02/12 02:40:00;;;;;;;19.10;10.30;;;-1.30;99.90;;;;;;5009107;28;20029;-78
2022/02/12 02:42:26;;;;;;;18.73;9.60;;;-1.30;99.90;;;;;;5009633;28;20037;-77
2022/02/12 02:44:52;;;;;;;16.27;9.23;;;-1.30;99.90;;;;;;4992538;28;20030;-77
2022/02/12 02:47:36;;;;;;;22.10;9.48;;;-1.50;99.90;;;;;;5009780;28;20033;-77
2022/02/12 02:50:02;;;;;;;19.90;8.77;;;-1.40;99.90;;;;;;4993795;28;20087;-77
2022/02/12 02:57:57;;;;;;;17.00;8.82;;;-1.60;99.90;;;;;;5009599;28;20037;-77
2022/02/12 03:00:23;;;;;;;20.23;9.93;;;-1.70;99.90;;;;;;4991556;28;20034;-78
2022/02/12 03:02:49;;;;;;;23.20;10.45;;;-1.60;99.90;;;;;;5009544;28;20086;-78
2022/02/12 03:05:14;;;;;;;26.02;10.13;;;-1.60;99.90;;;;;;5009511;28;20029;-78
2022/02/12 03:07:40;;;;;;;21.33;9.98;;;-1.60;99.90;;;;;;5009214;28;20037;-78
2022/02/12 03:10:08;;;;;;;17.17;10.80;;;-1.60;99.90;;;;;;5008620;28;20465;-78
2022/02/12 03:12:34;;;;;;;19.88;9.57;;;-1.60;99.90;;;;;;5009453;28;20037;-78
2022/02/12 03:15:00;;;;;;;19.25;10.30;;;-1.60;99.90;;;;;;5011139;28;20547;-78
2022/02/12 03:17:25;;;;;;;24.02;9.35;;;-1.50;99.90;;;;;;4991854;28;20064;-78
2022/02/12 03:19:51;;;;;;;20.63;8.98;;;-1.60;99.90;;;;;;5008732;28;20478;-78
2022/02/12 03:22:17;;;;;;;22.52;9.30;;;-1.80;99.90;;;;;;4992421;28;20061;-78
2022/02/12 03:24:44;;;;;;;17.35;8.55;;;-1.80;99.90;;;;;;4992443;28;20018;-78
2022/02/12 03:27:09;;;;;;;21.08;8.25;;;-2.00;99.90;;;;;;4992841;28;20416;-78
2022/02/12 03:29:35;;;;;;;17.50;9.57;;;-1.90;99.90;;;;;;5009714;28;20030;-78
2022/02/12 03:32:01;;;;;;;19.25;9.35;;;-1.70;99.90;;;;;;5009413;28;20038;-77
2022/02/12 03:34:26;;;;;;;23.85;8.63;;;-0.50;99.90;;;;;;5008985;28;20494;-78
2022/02/12 03:36:52;;;;;;;19.85;9.18;;;-1.80;99.90;;;;;;5008534;28;20034;-77
2022/02/12 03:39:17;;;;;;;24.98;9.43;;;-1.80;99.90;;;;;;5008405;28;20026;-78
2022/02/12 03:41:43;;;;;;;18.80;8.85;;;-1.90;99.90;;;;;;5008705;28;20091;-78
2022/02/12 03:44:09;;;;;;;21.92;10.18;;;-1.90;99.90;;;;;;5009073;28;20034;-78
2022/02/12 03:46:35;;;;;;;22.30;9.85;;;-1.90;99.90;;;;;;5009138;28;20030;-78
2022/02/12 03:49:01;;;;;;;25.80;9.65;;;-1.80;99.90;;;;;;5008142;28;20034;-78
2022/02/12 03:51:26;;;;;;;25.00;11.25;;;-1.90;99.90;;;;;;5009052;28;20034;-78
2022/02/12 03:53:52;;;;;;;29.00;11.55;;;-1.90;99.90;;;;;;5008954;28;20491;-78
2022/02/12 03:56:18;;;;;;;17.98;11.35;;;-2.00;99.90;;;;;;5008934;28;20471;-78
2022/02/12 03:58:43;;;;;;;19.77;10.85;;;-1.90;99.90;;;;;;5008410;28;20367;-78
2022/02/12 04:01:09;;;;;;;22.40;10.95;;;-1.90;99.90;;;;;;5008974;28;20482;-78
2022/02/12 04:03:34;;;;;;;20.48;10.45;;;-2.00;99.90;;;;;;5008674;28;20022;-78
2022/02/12 04:06:00;;;;;;;23.02;11.05;;;-2.20;99.90;;;;;;5008505;28;20026;-78
2022/02/12 04:08:26;;;;;;;23.92;12.68;;;-2.10;99.90;;;;;;5008458;28;20047;-78
2022/02/12 04:10:52;;;;;;;27.88;12.13;;;-2.10;99.90;;;;;;4991681;28;20105;-78
2022/02/12 04:13:19;;;;;;;23.67;12.52;;;-2.00;99.90;;;;;;5008685;28;20026;-78
2022/02/12 04:15:45;;;;;;;26.67;13.05;;;-1.80;99.90;;;;;;5008788;28;20422;-78
2022/02/12 04:18:12;;;;;;;30.60;14.77;;;-1.70;99.90;;;;;;5009502;28;20061;-79
2022/02/12 04:20:38;;;;;;;27.75;15.68;;;-1.90;99.90;;;;;;5012034;28;20026;-78
2022/02/12 04:23:05;;;;;;;25.45;13.93;;;-1.90;99.90;;;;;;5012950;28;20038;-78
2022/02/12 04:25:30;;;;;;;27.58;13.80;;;-1.90;99.90;;;;;;5012804;28;20050;-78
2022/02/12 04:27:56;;;;;;;26.52;13.07;;;-1.90;99.90;;;;;;5012588;28;20107;-78
2022/02/12 04:30:22;;;;;;;22.92;12.80;;;-1.90;99.90;;;;;;4994498;28;20034;-78
2022/02/12 04:32:48;;;;;;;23.90;13.75;;;-1.90;99.90;;;;;;5012439;28;20581;-78
2022/02/12 04:35:15;;;;;;;33.13;14.27;;;-1.90;99.90;;;;;;5012485;28;20030;-78
2022/02/12 04:37:42;;;;;;;25.08;13.25;;;-1.80;99.90;;;;;;4995090;28;20030;-78
2022/02/12 04:40:08;;;;;;;23.48;12.55;;;-1.90;99.90;;;;;;5012206;28;20026;-77
2022/02/12 04:42:34;;;;;;;32.50;14.07;;;-2.10;99.90;;;;;;4995009;28;20033;-77
2022/02/12 04:45:00;;;;;;;22.92;12.88;;;-2.10;99.90;;;;;;5012903;28;20026;-77
2022/02/12 04:47:26;;;;;;;27.17;13.63;;;-2.20;99.90;;;;;;5012283;28;20026;-76
2022/02/12 04:49:51;;;;;;;25.10;14.50;;;-2.10;99.90;;;;;;5011285;28;20038;-77
2022/02/12 04:52:20;;;;;;;30.50;15.18;;;-2.10;99.90;;;;;;5012112;28;20044;-77
2022/02/12 04:54:46;;;;;;;22.08;14.77;;;-2.00;99.90;;;;;;5012434;28;20026;-77
2022/02/12 04:57:12;;;;;;;30.25;15.52;;;-1.90;99.90;;;;;;5012264;28;20026;-77
2022/02/12 04:59:37;;;;;;;31.02;14.43;;;-2.00;99.90;;;;;;5011703;28;20026;-77
2022/02/12 05:02:04;;;;;;;27.95;14.55;;;-1.90;99.90;;;;;;5012033;28;20034;-76
2022/02/12 05:04:30;;;;;;;27.73;15.77;;;-1.90;99.90;;;;;;4994531;28;20030;-77
2022/02/12 05:06:56;;;;;;;29.52;15.15;;;-1.80;99.90;;;;;;5011869;28;20026;-77
2022/02/12 05:09:21;;;;;;;29.23;15.18;;;-1.90;99.90;;;;;;5011501;28;20034;-76
2022/02/12 05:11:50;;;;;;;23.95;13.32;;;-1.90;99.90;;;;;;5011888;28;20034;-77
2022/02/12 05:14:16;;;;;;;26.98;14.13;;;-2.00;99.90;;;;;;5012311;28;20575;-77
2022/02/12 05:16:42;;;;;;;28.33;14.57;;;-0.30;99.90;;;;;;5019258;28;20041;-77
2022/02/12 05:19:08;;;;;;;30.38;15.40;;;-2.00;99.90;;;;;;5017890;28;20030;-77
2022/02/12 05:21:34;;;;;;;26.08;13.93;;;-2.10;99.90;;;;;;5016545;28;20091;-77
2022/02/12 05:24:00;;;;;;;24.65;13.15;;;-2.20;99.90;;;;;;5012044;28;20424;-77
2022/02/12 05:26:29;;;;;;;29.92;13.30;;;-2.20;99.90;;;;;;5012379;28;20609;-77
2022/02/12 05:28:55;;;;;;;33.08;14.15;;;-2.20;99.90;;;;;;5010795;28;20030;-79
2022/02/12 05:31:21;;;;;;;26.63;13.52;;;-2.10;99.90;;;;;;5012375;28;20038;-79
2022/02/12 05:33:47;;;;;;;27.23;14.88;;;-2.20;99.90;;;;;;5012722;28;20143;-79
2022/02/12 05:36:13;;;;;;;28.35;13.15;;;-2.30;99.90;;;;;;5012847;28;20030;-79
2022/02/12 05:38:40;;;;;;;35.88;14.93;;;-2.20;99.90;;;;;;5011936;28;20030;-79
2022/02/12 05:41:07;;;;;;;28.30;14.93;;;-2.10;99.90;;;;;;5012415;28;20026;-79
2022/02/12 05:43:33;;;;;;;34.53;15.07;;;-2.20;99.90;;;;;;5012345;28;20509;-79
2022/02/12 05:45:59;;;;;;;37.17;15.15;;;-2.20;99.90;;;;;;5012001;28;20022;-79
2022/02/12 05:48:25;;;;;;;28.42;15.95;;;-2.20;99.90;;;;;;5012025;28;20041;-79
2022/02/12 05:50:51;;;;;;;28.58;15.60;;;-2.20;99.90;;;;;;5011821;28;20083;-79
2022/02/12 05:53:17;;;;;;;34.95;15.43;;;-2.00;99.90;;;;;;4995038;28;20030;-79
2022/02/12 05:55:42;;;;;;;32.72;16.45;;;-1.90;99.90;;;;;;5012548;28;20041;-79
2022/02/12 05:58:08;;;;;;;28.45;15.43;;;-1.90;99.90;;;;;;5012472;28;20113;-79
2022/02/12 06:00:34;;;;;;;27.27;14.82;;;-2.00;99.90;;;;;;5011830;28;20502;-79
2022/02/12 06:03:00;;;;;;;26.88;15.07;;;-2.00;99.90;;;;;;5012374;28;20018;-79
2022/02/12 06:05:26;;;;;;;30.17;14.85;;;-2.00;99.90;;;;;;4979077;28;20394;-79
2022/02/12 06:07:52;;;;;;;27.17;15.18;;;-2.00;99.90;;;;;;5019699;28;20036;-79
2022/02/12 06:10:18;;;;;;;27.77;15.23;;;-2.10;99.90;;;;;;5023621;28;20057;-79
2022/02/12 06:12:43;;;;;;;26.08;15.05;;;-2.10;99.90;;;;;;5020968;28;20125;-79
2022/02/12 06:15:09;;;;;;;30.70;16.92;;;-2.00;99.90;;;;;;5013199;28;20100;-79
2022/02/12 06:17:35;;;;;;;28.88;16.75;;;-2.10;99.90;;;;;;5012676;28;20037;-80
2022/02/12 06:20:02;;;;;;;32.83;16.02;;;-2.30;99.90;;;;;;5011427;28;20084;-79
2022/02/12 06:22:28;;;;;;;30.08;15.90;;;-2.10;99.90;;;;;;5011969;28;20026;-79
2022/02/12 06:24:54;;;;;;;25.40;14.50;;;-2.20;99.90;;;;;;5012839;28;20026;-79
2022/02/12 06:27:20;;;;;;;27.15;14.00;;;-2.40;99.90;;;;;;4994731;28;20521;-79
2022/02/12 06:29:46;;;;;;;27.70;15.93;;;-2.40;99.90;;;;;;5011434;28;20062;-79
2022/02/12 06:32:12;;;;;;;29.15;15.85;;;-2.50;99.90;;;;;;5012242;28;20550;-79
2022/02/12 06:34:38;;;;;;;26.85;16.13;;;-2.40;99.90;;;;;;4994578;28;20036;-79
2022/02/12 06:37:04;;;;;;;28.05;16.00;;;-2.40;99.90;;;;;;4994789;28;20034;-78
2022/02/12 06:39:30;;;;;;;27.55;15.60;;;-2.50;99.90;;;;;;5011015;28;20040;-77
2022/02/12 06:41:56;;;;;;;26.63;15.15;;;-1.20;99.90;;;;;;5009413;28;20083;-78
2022/02/12 06:44:22;;;;;;;30.85;16.00;;;-2.40;99.90;;;;;;5011189;28;20437;-78
2022/02/12 06:46:48;;;;;;;29.55;17.25;;;-2.30;99.90;;;;;;5010368;28;20034;-78
2022/02/12 06:49:13;;;;;;;34.95;16.85;;;-2.40;99.90;;;;;;4991206;28;20037;-78
2022/02/12 06:51:39;;;;;;;28.90;16.38;;;-1.90;99.90;;;;;;5010004;28;20120;-78
2022/02/12 06:54:04;;;;;;;32.83;17.17;;;-2.40;99.90;;;;;;5010396;28;20029;-78
2022/02/12 06:56:30;;;;;;;26.73;16.02;;;-2.40;99.90;;;;;;5010285;28;20074;-78
2022/02/12 06:58:56;;;;;;;27.48;15.00;;;-2.50;99.90;;;;;;5008895;28;20034;-77
2022/02/12 07:01:25;;;;;;;28.27;14.90;;;-2.40;99.90;;;;;;5010075;28;20037;-77
2022/02/12 07:03:55;;;;;;;26.30;15.73;;;-2.60;99.90;;;;;;5009884;28;20037;-76
2022/02/12 07:06:20;;;;;;;32.55;16.38;;;-2.50;99.90;;;;;;5009158;28;20037;-76
2022/02/12 07:08:46;;;;;;;30.67;15.65;;;-2.60;99.90;;;;;;5008879;28;20038;-76
2022/02/12 07:11:13;;;;;;;29.42;17.00;;;-2.40;99.90;;;;;;4991808;28;20113;-76
2022/02/12 07:13:38;;;;;;;30.58;15.38;;;-2.50;99.90;;;;;;5009513;28;20040;-77
2022/02/12 07:16:04;;;;;;;30.30;15.75;;;-2.50;99.90;;;;;;5009406;28;20049;-76
2022/02/12 07:18:30;;;;;;;33.65;16.95;;;-2.30;99.90;;;;;;5008861;28;20030;-76
2022/02/12 07:20:56;;;;;;;32.20;16.70;;;-3.30;99.90;;;;;;5009083;28;20113;-77
2022/02/12 07:23:22;;;;;;;34.28;17.30;;;-2.40;99.90;;;;;;5009465;28;20037;-76
2022/02/12 07:25:47;;;;;;;32.92;16.48;;;-2.40;99.90;;;;;;4992025;28;20026;-77
2022/02/12 07:28:13;;;;;;;36.00;17.80;;;-2.20;99.90;;;;;;5009473;28;20120;-76
2022/02/12 07:30:41;;;;;;;33.08;18.27;;;-2.10;99.90;;;;;;5008610;28;20112;-76
2022/02/12 07:33:07;;;;;;;37.17;18.50;;;-2.10;99.90;;;;;;5009345;28;20046;-79
2022/02/12 07:35:33;;;;;;;40.55;19.38;;;-1.30;99.90;;;;;;4991636;28;20469;-77
2022/02/12 07:37:59;;;;;;;38.30;18.88;;;-1.90;99.90;;;;;;5009918;28;20101;-77
2022/02/12 07:40:25;;;;;;;37.15;19.13;;;-1.80;99.90;;;;;;5008959;28;20054;-77
2022/02/12 07:42:51;;;;;;;42.05;18.92;;;-1.60;99.90;;;;;;5009719;28;20061;-77
2022/02/12 07:45:17;;;;;;;39.97;19.67;;;-1.60;99.90;;;;;;5009813;28;20026;-77
2022/02/12 07:47:44;;;;;;;39.38;16.73;;;-1.50;99.90;;;;;;4998164;28;20391;-77
2022/02/12 07:50:12;;;;;;;41.53;19.35;;;-1.40;99.90;;;;;;5008821;28;20055;-77
2022/02/12 07:52:39;;;;;;;38.97;19.63;;;-1.30;99.90;;;;;;5010817;28;20030;-77
2022/02/12 07:55:08;;;;;;;42.13;19.92;;;-1.20;99.90;;;;;;5014298;28;20030;-76
2022/02/12 07:57:35;;;;;;;37.55;20.35;;;-1.30;99.90;;;;;;4995617;28;20037;-75
2022/02/12 08:00:00;;;;;;;40.83;19.92;;;-1.10;99.90;;;;;;4995808;28;20494;-75
2022/02/12 08:02:27;;;;;;;39.50;19.88;;;-1.00;99.90;;;;;;4994859;28;20034;-76
2022/02/12 08:04:52;;;;;;;42.25;21.58;;;-1.00;99.90;;;;;;5012057;28;20399;-75
2022/02/12 08:07:30;;;;;;;37.80;20.13;;;-0.70;99.90;;;;;;4994670;28;20109;-76
2022/02/12 08:10:02;;;;;;;37.17;20.73;;;-0.60;99.90;;;;;;4993957;28;20026;-75
2022/02/12 08:12:28;;;;;;;39.33;19.73;;;-0.50;99.90;;;;;;5012125;28;20030;-76
2022/02/12 08:14:55;;;;;;;37.95;19.83;;;-0.40;99.90;;;;;;5012263;28;20041;-75
2022/02/12 08:17:23;;;;;;;40.10;21.20;;;-0.40;99.90;;;;;;5012584;28;20125;-77
2022/02/12 08:19:50;;;;;;;34.63;18.13;;;-0.50;99.90;;;;;;5015045;28;20041;-80
2022/02/12 08:22:17;;;;;;;29.60;16.52;;;-0.40;99.90;;;;;;5015041;28;20034;-77
2022/02/12 08:24:44;;;;;;;30.25;16.67;;;-0.60;99.90;;;;;;5014162;28;20078;-76
2022/02/12 08:27:10;;;;;;;31.13;16.15;;;-0.60;99.90;;;;;;5012690;28;20486;-76
2022/02/12 08:29:40;;;;;;;26.38;15.10;;;0.70;99.90;;;;;;4994059;28;20049;-78
2022/02/12 08:32:06;;;;;;;33.42;17.58;;;-0.60;99.90;;;;;;5012943;28;20043;-76
2022/02/12 08:34:33;;;;;;;29.27;16.08;;;-0.40;99.90;;;;;;5012365;28;20034;-77
2022/02/12 08:36:59;;;;;;;27.20;16.65;;;0.00;99.90;;;;;;5015668;28;20063;-79
2022/02/12 08:39:24;;;;;;;22.48;13.68;;;0.80;99.90;;;;;;4995921;28;20030;-77
2022/02/12 08:41:50;;;;;;;18.83;10.90;;;1.50;99.90;;;;;;5011581;28;20034;-75
2022/02/12 08:44:17;;;;;;;20.98;12.27;;;2.00;99.90;;;;;;5011753;28;20030;-76
2022/02/12 08:46:44;;;;;;;16.83;10.65;;;2.50;99.90;;;;;;5011983;28;20386;-76
2022/02/12 08:49:10;;;;;;;18.83;10.85;;;3.30;99.90;;;;;;5012287;28;20125;-76
2022/02/12 08:51:39;;;;;;;19.05;11.40;;;3.70;99.90;;;;;;4994203;28;20034;-76
2022/02/12 08:54:09;;;;;;;21.77;11.68;;;4.00;99.90;;;;;;5012676;28;20030;-76
2022/02/12 08:56:37;;;;;;;18.88;12.23;;;4.30;99.90;;;;;;5012542;28;20117;-77
2022/02/12 08:59:04;;;;;;;19.27;11.57;;;4.70;99.90;;;;;;5010861;28;20048;-77
2022/02/12 09:01:31;;;;;;;19.00;10.90;;;5.50;99.90;;;;;;5011415;28;20517;-75
2022/02/12 09:03:57;;;;;;;14.45;9.50;;;5.80;99.90;;;;;;5011118;28;20410;-77
2022/02/12 09:06:23;;;;;;;13.38;8.73;;;6.20;99.90;;;;;;4993114;28;20029;-77
2022/02/12 09:08:51;;;;;;;12.85;7.60;;;6.40;99.90;;;;;;5011131;28;20038;-78
2022/02/12 09:11:19;;;;;;;13.25;7.70;;;6.50;99.90;;;;;;4991812;28;20441;-77
2022/02/12 09:13:46;;;;;;;14.43;8.02;;;6.50;99.90;;;;;;4991952;28;20205;-77
2022/02/12 09:16:11;;;;;;;12.48;8.10;;;6.60;99.90;;;;;;4979578;28;20030;-78
2022/02/12 09:18:38;;;;;;;14.48;7.38;;;6.90;99.90;;;;;;5010553;28;20030;-77
2022/02/12 09:21:03;;;;;;;11.48;7.15;;;6.90;99.90;;;;;;5011013;28;20026;-77
2022/02/12 09:23:29;;;;;;;13.48;7.65;;;7.10;99.90;;;;;;5011037;28;20103;-77
2022/02/12 09:25:55;;;;;;;10.88;6.57;;;7.80;99.90;;;;;;5011452;28;20026;-77
2022/02/12 09:28:20;;;;;;;9.68;6.03;;;7.80;99.90;;;;;;5010861;28;20050;-77
2022/02/12 09:30:46;;;;;;;18.00;8.13;;;7.80;99.90;;;;;;5010882;28;20064;-77
2022/02/12 09:33:11;;;;;;;17.10;8.20;;;7.90;99.90;;;;;;4993586;28;20617;-76
2022/02/12 09:35:37;;;;;;;14.02;7.30;;;7.60;99.90;;;;;;5010653;28;20034;-77
2022/02/12 09:38:03;;;;;;;13.02;6.13;;;7.80;99.90;;;;;;4977153;28;20398;-77
2022/02/12 09:40:31;;;;;;;12.82;7.00;;;;;;;;;;5010388;28;20494;-76
2022/02/12 09:43:01;;;;;;;15.52;7.60;;;8.10;99.90;;;;;;5010800;28;20553;-77
2022/02/12 09:45:34;;;;;;;13.73;6.25;;;8.60;99.90;;;;;;5011091;28;20098;-76
2022/02/12 09:48:01;;;;;;;9.25;5.70;;;9.80;99.90;;;;;;4991384;28;20033;-77
2022/02/12 09:50:26;;;;;;;10.65;6.38;;;9.90;99.90;;;;;;4990883;28;20506;-77
2022/02/12 09:52:54;;;;;;;11.98;6.50;;;8.70;99.90;;;;;;4979908;28;20034;-76
2022/02/12 09:55:22;;;;;;;16.95;8.18;;;10.40;99.90;;;;;;5011300;28;20025;-77
2022/02/12 09:57:48;;;;;;;15.98;7.25;;;9.20;99.90;;;;;;5019470;28;20048;-77
2022/02/12 10:00:17;;;;;;;14.02;6.32;;;9.20;99.90;;;;;;5020795;28;20406;-77
2022/02/12 10:02:44;;;;;;;11.25;5.65;;;10.00;99.90;;;;;;5020379;28;20136;-76
2022/02/12 10:05:21;;;;;;;13.45;5.18;;;10.30;99.90;;;;;;5017129;28;20438;-77
2022/02/12 10:07:51;;;;;;;10.95;5.38;;;10.50;98.50;;;;;;5011077;28;20026;-76
2022/02/12 10:10:19;;;;;;;12.75;5.80;;;11.00;96.70;;;;;;5014735;28;20045;-76
2022/02/12 10:12:46;;;;;;;12.40;5.93;;;11.10;96.10;;;;;;5010710;28;20026;-76
2022/02/12 10:15:23;;;;;;;15.35;5.13;;;12.70;93.70;;;;;;5010413;28;20113;-76
2022/02/12 10:17:51;;;;;;;10.27;5.60;;;11.20;92.00;;;;;;5009478;28;20072;-76
2022/02/12 10:20:25;;;;;;;10.30;5.32;;;11.20;94.60;;;;;;5009282;28;20022;-76
2022/02/12 10:22:52;;;;;;;14.05;6.13;;;11.00;94.60;;;;;;5010010;28;20422;-76
2022/02/12 10:25:19;;;;;;;13.88;5.55;;;10.50;94.60;;;;;;5010399;28;20410;-76
2022/02/12 10:27:46;;;;;;;12.23;5.03;;;10.90;94.10;;;;;;5010182;28;20401;-75
2022/02/12 10:30:14;;;;;;;7.53;4.75;;;11.00;93.90;;;;;;5009279;28;20054;-76
2022/02/12 10:32:41;;;;;;;9.18;4.63;;;12.40;94.10;;;;;;5010203;28;20549;-76
2022/02/12 10:35:11;;;;;;;10.48;5.78;;;11.30;94.00;;;;;;5010167;28;20506;-76
2022/02/12 10:37:45;;;;;;;12.98;6.30;;;12.50;92.50;;;;;;5010160;28;20022;-77
2022/02/12 10:40:11;;;;;;;10.07;4.45;;;11.80;90.40;;;;;;5009669;28;20109;-77
2022/02/12 10:42:43;;;;;;;8.55;3.70;;;11.90;90.50;;;;;;5010555;28;20036;-76
2022/02/12 10:45:13;;;;;;;;;;;11.60;90.90;;;;;;5010710;28;20180;-76
2022/02/12 10:47:42;;;;;;;11.07;4.82;;;11.60;90.60;;;;;;5010015;28;20494;-76
2022/02/12 10:50:08;;;;;;;10.35;4.18;;;12.50;91.70;;;;;;5009421;28;20034;-76
2022/02/12 10:52:44;;;;;;;9.88;4.00;;;11.90;90.00;;;;;;5009821;28;20049;-77
2022/02/12 10:55:39;;;;;;;8.27;4.03;;;11.90;90.30;;;;;;5009839;28;20474;-76
2022/02/12 10:58:13;;;;;;;9.27;4.35;;;12.50;90.70;;;;;;4971622;28;20049;-77
2022/02/12 11:00:40;;;;;;;11.77;4.68;;;12.70;91.80;;;;;;5009319;28;20041;-77
2022/02/12 11:03:10;;;;;;;13.00;5.05;;;11.40;92.20;;;;;;5009577;28;20084;-77
2022/02/12 11:05:42;;;;;;;11.73;4.18;;;12.60;91.80;;;;;;5009444;28;20033;-76
2022/02/12 11:08:10;;;;;;;10.57;4.78;;;12.10;88.50;;;;;;5009561;28;20560;-77
2022/02/12 11:10:37;;;;;;;11.82;4.82;;;12.00;88.80;;;;;;5008735;28;20038;-77
2022/02/12 11:13:04;;;;;;;10.90;4.60;;;13.60;91.10;;;;;;5009657;28;20105;-77
2022/02/12 11:15:30;;;;;;;10.52;4.45;;;12.40;90.00;;;;;;5009334;28;20383;-77
2022/02/12 11:18:01;;;;;;;13.50;5.13;;;13.40;90.70;;;;;;5009574;28;20708;-77
2022/02/12 11:20:28;;;;;;;10.95;5.18;;;12.80;90.30;;;;;;5008420;28;20044;-77
2022/02/12 11:23:19;;;;;;;10.63;4.70;;;13.10;86.10;;;;;;4991720;28;20111;-77
2022/02/12 11:25:45;;;;;;;11.38;4.25;;;13.70;82.20;;;;;;5009710;28;20509;-77
2022/02/12 11:28:12;;;;;;;8.60;4.22;;;14.30;81.80;;;;;;5016442;23;20560;-77
2022/02/12 11:30:42;;;;;;;11.38;3.80;;;14.00;79.50;;;;;;4968289;28;20033;-77
2022/02/12 11:33:20;;;;;;;9.05;4.35;;;14.40;80.60;;;;;;4970586;28;20023;-77
2022/02/12 11:36:10;;;;;;;7.63;4.32;;;14.30;82.00;;;;;;4954864;28;20026;-77
2022/02/12 11:38:40;;;;;;;8.00;4.53;;;14.20;77.90;;;;;;4969587;28;20563;-77
2022/02/12 11:41:25;;;;;;;7.45;4.07;;;14.60;80.10;;;;;;4970704;28;20030;-77
2022/02/12 11:43:52;;;;;;;10.68;4.90;;;15.80;73.70;;;;;;4970698;28;20068;-77
2022/02/12 11:46:48;;;;;;;8.10;4.20;;;15.00;72.50;;;;;;4953287;28;20034;-77
2022/02/12 11:49:31;;;;;;;9.77;4.65;;;14.70;72.70;;;;;;4969914;28;20050;-77
2022/02/12 11:52:01;;;;;;;11.95;5.03;;;14.70;72.90;;;;;;4970278;28;20030;-77
2022/02/12 11:54:49;;;;;;;12.45;5.00;;;14.60;76.00;;;;;;4970888;28;20380;-77
2022/02/12 11:57:24;;;;;;;8.23;4.50;;;14.70;72.10;;;;;;4971155;28;20475;-77
2022/02/12 11:59:50;;;;;;;9.55;4.80;;;14.70;70.40;;;;;;4972414;28;20402;-77
2022/02/12 12:02:44;;;;;;;8.85;3.80;;;16.80;72.90;;;;;;4972997;28;20027;-77
2022/02/12 12:05:16;;;;;;;8.30;4.68;;;15.40;68.70;;;;;;4973515;28;20031;-77
2022/02/12 12:08:06;;;;;;;9.88;4.10;;;15.60;70.30;;;;;;4954807;28;20033;-77
2022/02/12 12:10:36;;;;;;;8.10;3.95;;;15.70;69.30;;;;;;4971304;28;20390;-78
2022/02/12 12:13:11;;;;;;;9.15;3.97;;;17.50;69.10;;;;;;4953828;28;20483;-78
2022/02/12 12:15:38;;;;;;;7.90;3.92;;;16.20;66.40;;;;;;4971020;28;20030;-79
2022/02/12 12:18:05;;;;;;;11.63;4.10;;;16.10;66.30;;;;;;4971684;28;20382;-79
2022/02/12 12:20:41;;;;;;;8.48;3.80;;;15.80;66.00;;;;;;4971264;28;20031;-79
2022/02/12 12:23:11;;;;;;;9.77;4.10;;;15.50;66.60;;;;;;4966299;28;20026;-79
2022/02/12 12:25:52;;;;;;;13.25;4.63;;;14.80;67.30;;;;;;4978599;28;20008;-79
2022/02/12 12:30:43;;;;;;;7.30;4.18;;;14.90;66.80;;;;;;4954947;28;20039;-78
2022/02/12 12:31:31;;;;;;;9.25;4.80;;;14.70;65.80;;;;;;4958650;28;20035;-79
2022/02/12 12:34:08;;;;;;;7.38;4.15;;;15.10;67.10;;;;;;4944549;28;20448;-79
2022/02/12 12:36:38;;;;;;;9.68;4.20;;;14.50;66.40;;;;;;4971746;28;20031;-78
2022/02/12 12:39:13;;;;;;;6.65;3.90;;;14.40;68.10;;;;;;4964653;28;20031;-78
2022/02/12 12:41:42;;;;;;;10.68;4.45;;;14.60;69.50;;;;;;4975613;28;20038;-78
2022/02/12 12:44:14;;;;;;;10.38;4.53;;;15.00;67.40;;;;;;4975499;28;20015;-78